| time (UTC) | temp C | wind direction | speed KPH | gust KPH | rain 1hr cm | rain 24hr cm | rain mn cm | humidity % | barometer mb |
| 20260906051527 | 22 | 333 | 6.4 | 14.5 | 0.00 | 0.10 | 0.00 | 88 | 1010.1 |
| 20260906050025 | 22 | 57 | 1.6 | 11.3 | 0.00 | 0.10 | 0.00 | 88 | 1010.0 |
| 20260906044524 | 22 | 18 | 3.2 | 9.7 | 0.00 | 0.10 | 0.00 | 88 | 1010.0 |
| 20260906043025 | 22 | 45 | 3.2 | 11.3 | 0.00 | 0.10 | 0.00 | 88 | 1010.0 |
| 20260906041527 | 22 | 15 | 3.2 | 12.9 | 0.00 | 0.10 | 0.00 | 88 | 1009.9 |
| 20260906040026 | 22 | 67 | 1.6 | 12.9 | 0.00 | 0.10 | 0.00 | 88 | 1009.8 |
| 20260906034521 | 22 | 71 | 4.8 | 11.3 | 0.00 | 0.10 | 0.10 | 88 | 1009.8 |
| 20260906033017 | 22 | 38 | 3.2 | 12.9 | 0.00 | 0.10 | 0.10 | 88 | 1009.8 |
| 20260906031528 | 22 | 69 | 6.4 | 14.5 | 0.00 | 0.10 | 0.10 | 88 | 1009.7 |
| 20260906030015 | 23 | 105 | 6.4 | 11.3 | 0.00 | 0.10 | 0.10 | 88 | 1009.7 |
| 20260906024514 | 23 | 73 | 3.2 | 11.3 | 0.00 | 0.10 | 0.10 | 88 | 1009.7 |
| 20260906023013 | 23 | 80 | 6.4 | 14.5 | 0.00 | 0.10 | 0.10 | 88 | 1009.6 |
| 20260906021513 | 23 | 78 | 6.4 | 14.5 | 0.00 | 0.10 | 0.10 | 87 | 1009.5 |
| 20260906020012 | 23 | 343 | 6.4 | 14.5 | 0.00 | 0.10 | 0.10 | 88 | 1009.3 |
| 20260906014516 | 23 | 273 | 8.0 | 14.5 | 0.00 | 0.10 | 0.10 | 88 | 1009.3 |
| 20260906013011 | 23 | 109 | 9.7 | 14.5 | 0.00 | 0.10 | 0.10 | 88 | 1008.6 |
| 20260906011509 | 22 | 85 | 3.2 | 8.0 | 0.00 | 0.10 | 0.10 | 88 | 1008.6 |
| 20260906010008 | 22 | 342 | 0.0 | 3.2 | 0.00 | 0.10 | 0.10 | 86 | 1008.3 |
| 20260906004507 | 22 | 342 | 0.0 | 3.2 | 0.00 | 0.10 | 0.10 | 85 | 1008.1 |
| 20260906003007 | 23 | 25 | 0.0 | 1.6 | 0.00 | 0.10 | 0.10 | 85 | 1008.0 |
| 20260906001506 | 23 | 25 | 0.0 | 3.2 | 0.00 | 0.10 | 0.10 | 85 | 1007.7 |
| 20260906000006 | 23 | 360 | 1.6 | 4.8 | 0.00 | 0.10 | 0.10 | 84 | 1007.7 |
| 20260905234506 | 23 | 342 | 0.0 | 6.4 | 0.00 | 0.10 | 0.10 | 82 | 1007.6 |
| 20260905233004 | 23 | 323 | 1.6 | 6.4 | 0.00 | 0.10 | 0.10 | 82 | 1007.7 |
| 20260905231504 | 23 | 289 | 1.6 | 8.0 | 0.00 | 0.10 | 0.10 | 82 | 1007.9 |
| 20260905230004 | 24 | 67 | 6.4 | 16.1 | 0.00 | 0.10 | 0.10 | 82 | 1008.3 |
| 20260905224503 | 25 | 59 | 4.8 | 11.3 | 0.00 | 0.10 | 0.10 | 76 | 1008.4 |
| 20260905223002 | 26 | 34 | 8.0 | 17.7 | 0.00 | 0.10 | 0.10 | 73 | 1007.8 |
| 20260905221501 | 28 | 311 | 14.5 | 35.4 | 0.00 | 0.10 | 0.10 | 68 | 1007.3 |
| 20260905220001 | 31 | 306 | 4.8 | 14.5 | 0.00 | 0.10 | 0.10 | 66 | 1006.9 |
| 20260905214607 | 31 | 247 | 8.0 | 16.1 | 0.00 | 0.10 | 0.10 | 64 | 1006.9 |
| 20260905213104 | 31 | 295 | 8.0 | 16.1 | 0.00 | 0.10 | 0.10 | 64 | 1006.5 |
| 20260905211558 | 31 | 281 | 9.7 | 14.5 | 0.00 | 0.10 | 0.10 | 64 | 1006.8 |
| 20260905210106 | 31 | 203 | 6.4 | 14.5 | 0.00 | 0.10 | 0.10 | 65 | 1007.1 |
| 20260905204553 | 31 | 300 | 6.4 | 12.9 | 0.00 | 0.10 | 0.10 | 64 | 1007.2 |
| 20260905203053 | 32 | 298 | 4.8 | 14.5 | 0.00 | 0.10 | 0.10 | 61 | 1007.3 |
| 20260905201551 | 32 | 302 | 4.8 | 11.3 | 0.00 | 0.10 | 0.10 | 59 | 1007.7 |
| 20260905200058 | 32 | 307 | 3.2 | 11.3 | 0.00 | 0.10 | 0.10 | 60 | 1007.6 |
| 20260905194548 | 32 | 261 | 0.0 | 11.3 | 0.00 | 0.10 | 0.10 | 60 | 1007.7 |
| 20260905193044 | 32 | 269 | 3.2 | 9.7 | 0.00 | 0.10 | 0.10 | 59 | 1007.9 |
| 20260905191544 | 32 | 199 | 1.6 | 9.7 | 0.00 | 0.10 | 0.10 | 61 | 1008.2 |
| 20260905190048 | 31 | 273 | 1.6 | 8.0 | 0.00 | 0.10 | 0.10 | 62 | 1008.3 |
| 20260905184540 | 31 | 218 | 1.6 | 8.0 | 0.00 | 0.10 | 0.10 | 62 | 1008.5 |
| 20260905183036 | 31 | 228 | 1.6 | 8.0 | 0.00 | 0.10 | 0.10 | 63 | 1008.7 |
| 20260905181535 | 30 | 198 | 3.2 | 8.0 | 0.00 | 0.10 | 0.10 | 63 | 1008.9 |
| 20260905180044 | 30 | 177 | 1.6 | 9.7 | 0.00 | 0.10 | 0.10 | 66 | 1008.9 |
| 20260905174526 | 28 | 206 | 1.6 | 8.0 | 0.00 | 0.10 | 0.10 | 69 | 1009.0 |
| 20260905173022 | 28 | 207 | 1.6 | 9.7 | 0.00 | 0.10 | 0.10 | 72 | 1009.2 |
| 20260905171522 | 27 | 203 | 1.6 | 8.0 | 0.03 | 0.10 | 0.10 | 79 | 1009.3 |
| 20260905170018 | 26 | 170 | 0.0 | 9.7 | 0.10 | 0.10 | 0.10 | 83 | 1009.7 |
| 20260905164517 | 25 | 198 | 1.6 | 8.0 | 0.10 | 0.10 | 0.10 | 85 | 1009.8 |
| 20260905163016 | 23 | 179 | 0.0 | 3.2 | 0.10 | 0.10 | 0.10 | 86 | 1010.0 |
| 20260905161523 | 25 | 198 | 4.8 | 22.5 | 0.08 | 0.08 | 0.08 | 79 | 1009.8 |
| 20260905160014 | 27 | 261 | 6.4 | 12.9 | 0.00 | 0.00 | 0.00 | 68 | 1010.8 |
| 20260905154510 | 27 | 215 | 3.2 | 9.7 | 0.00 | 0.00 | 0.00 | 69 | 1010.1 |
| 20260905153006 | 26 | 207 | 8.0 | 12.9 | 0.00 | 0.00 | 0.00 | 70 | 1010.0 |
| 20260905151502 | 26 | 190 | 3.2 | 14.5 | 0.00 | 0.00 | 0.00 | 71 | 1009.9 |
| 20260905150057 | 26 | 183 | 6.4 | 16.1 | 0.00 | 0.00 | 0.00 | 74 | 1009.8 |
| 20260905144553 | 25 | 178 | 4.8 | 16.1 | 0.00 | 0.00 | 0.00 | 76 | 1009.9 |
| 20260905143049 | 25 | 214 | 8.0 | 24.1 | 0.00 | 0.00 | 0.00 | 76 | 1009.9 |
| 20260905141546 | 24 | 175 | 9.7 | 20.9 | 0.00 | 0.00 | 0.00 | 77 | 1010.0 |
| 20260905140042 | 23 | 202 | 8.0 | 16.1 | 0.00 | 0.00 | 0.00 | 79 | 1010.1 |
| 20260905134544 | 23 | 135 | 14.5 | 22.5 | 0.00 | 0.00 | 0.00 | 78 | 1010.3 |
| 20260905133038 | 22 | 134 | 9.7 | 16.1 | 0.00 | 0.00 | 0.00 | 80 | 1010.5 |
| 20260905131537 | 22 | 130 | 12.9 | 22.5 | 0.00 | 0.00 | 0.00 | 80 | 1010.6 |
| 20260905130031 | 22 | 150 | 9.7 | 19.3 | 0.00 | 0.00 | 0.00 | 82 | 1010.5 |
| 20260905124528 | 22 | 127 | 9.7 | 17.7 | 0.00 | 0.00 | 0.00 | 82 | 1010.2 |
| 20260905123024 | 21 | 132 | 8.0 | 12.9 | 0.00 | 0.00 | 0.00 | 84 | 1010.1 |
| 20260905121521 | 21 | 138 | 6.4 | 12.9 | 0.00 | 0.00 | 0.00 | 85 | 1010.0 |
| 20260905120030 | 20 | 142 | 9.7 | 16.1 | 0.00 | 0.00 | 0.00 | 85 | 1010.0 |
| 20260905114514 | 20 | 129 | 11.3 | 17.7 | 0.00 | 0.00 | 0.00 | 85 | 1010.0 |
| 20260905113014 | 20 | 109 | 6.4 | 11.3 | 0.00 | 0.00 | 0.00 | 85 | 1010.3 |
| 20260905111515 | 21 | 86 | 9.7 | 20.9 | 0.00 | 0.00 | 0.00 | 85 | 1010.1 |
| 20260905110017 | 21 | 45 | 11.3 | 29.0 | 0.00 | 0.00 | 0.00 | 85 | 1010.1 |
| 20260905104509 | 21 | 107 | 12.9 | 24.1 | 0.00 | 0.00 | 0.00 | 85 | 1010.2 |
| 20260905103011 | 21 | 104 | 11.3 | 20.9 | 0.00 | 0.00 | 0.00 | 85 | 1010.3 |
| 20260905101501 | 21 | 49 | 12.9 | 19.3 | 0.00 | 0.00 | 0.00 | 85 | 1010.2 |
| 20260905100101 | 21 | 81 | 12.9 | 33.8 | 0.00 | 0.00 | 0.00 | 86 | 1010.0 |
| 20260905094554 | 22 | 53 | 8.0 | 16.1 | 0.00 | 0.00 | 0.00 | 87 | 1009.4 |
| 20260905093107 | 22 | 198 | 0.0 | 1.6 | 0.00 | 0.00 | 0.00 | 87 | 1008.9 |
| 20260905091555 | 22 | 198 | 0.0 | 0.0 | 0.00 | 0.00 | 0.00 | 88 | 1008.8 |
| 20260905090049 | 22 | 198 | 0.0 | 1.6 | 0.00 | 0.00 | 0.00 | 88 | 1008.8 |
| 20260905084547 | 22 | 198 | 0.0 | 1.6 | 0.00 | 0.00 | 0.00 | 88 | 1008.7 |
| 20260905083046 | 22 | 198 | 0.0 | 1.6 | 0.00 | 0.00 | 0.00 | 88 | 1008.7 |
| 20260905081545 | 23 | 198 | 0.0 | 0.0 | 0.00 | 0.00 | 0.00 | 88 | 1008.7 |
| 20260905080045 | 23 | 197 | 0.0 | 0.0 | 0.00 | 0.00 | 0.00 | 88 | 1008.5 |
| 20260905074544 | 23 | 198 | 0.0 | 1.6 | 0.00 | 0.00 | 0.00 | 87 | 1008.4 |
| 20260905073043 | 23 | 198 | 0.0 | 1.6 | 0.00 | 0.00 | 0.00 | 87 | 1008.2 |
| 20260905071546 | 23 | 197 | 4.8 | 8.0 | 0.00 | 0.00 | 0.00 | 87 | 1007.8 |
| 20260905070050 | 23 | 201 | 0.0 | 8.0 | 0.00 | 0.00 | 0.00 | 87 | 1007.9 |
| 20260905064547 | 23 | 188 | 3.2 | 9.7 | 0.00 | 0.00 | 0.00 | 88 | 1008.0 |
| 20260905063035 | 23 | 194 | 3.2 | 9.7 | 0.00 | 0.00 | 0.00 | 88 | 1008.2 |
| 20260905061532 | 23 | 141 | 0.0 | 3.2 | 0.00 | 0.00 | 0.00 | 88 | 1008.6 |
| 20260905060030 | 23 | 140 | 0.0 | 1.6 | 0.00 | 0.00 | 0.00 | 88 | 1008.8 |
| 20260905054536 | 23 | 140 | 0.0 | 0.0 | 0.00 | 0.00 | 0.00 | 88 | 1008.9 |
| 20260905053027 | 23 | 140 | 0.0 | 0.0 | 0.00 | 0.00 | 0.00 | 88 | 1009.0 |